Time;durP1;ratioP1;P1;durP2;ratioP2;P2;SDS_P1;SDS_P2;PMS_P1;PMS_P2;Temp;Humidity;BMP_temperature;BMP_pressure;BME280_temperature;BME280_humidity;BME280_pressure;Samples;Min_cycle;Max_cycle;Signal;HPM_P1;HPM_P2
2023/06/21 00:00:13;;;;;;;;;6.00;6.00;;;;;;;;4991219;28;28569;-69
2023/06/21 00:02:39;;;;;;;;;5.00;4.00;;;;;;;;4990988;28;28479;-69
2023/06/21 00:05:06;;;;;;;;;4.00;3.00;;;;;;;;4989716;28;28516;-69
2023/06/21 00:07:31;;;;;;;;;4.67;3.67;;;;;;;;4989444;28;28492;-69
2023/06/21 00:09:56;;;;;;;;;5.33;5.33;;;;;;;;4990725;28;28480;-69
2023/06/21 00:12:22;;;;;;;;;4.00;4.00;;;;;;;;4991104;28;28414;-69
2023/06/21 00:14:47;;;;;;;;;3.00;3.00;;;;;;;;4991075;28;28406;-69
2023/06/21 00:17:12;;;;;;;;;6.00;3.33;;;;;;;;4990562;28;28344;-69
2023/06/21 00:19:38;;;;;;;;;3.00;3.00;;;;;;;;4988857;28;28534;-69
2023/06/21 00:22:04;;;;;;;;;6.67;3.67;;;;;;;;4990785;28;28480;-69
2023/06/21 00:24:29;;;;;;;;;3.33;2.00;;;;;;;;4989501;28;28388;-70
2023/06/21 00:26:56;;;;;;;;;4.00;4.00;;;;;;;;4990733;28;29505;-69
2023/06/21 00:29:21;;;;;;;;;3.67;3.67;;;;;;;;4990784;28;28221;-69
2023/06/21 00:31:46;;;;;;;;;6.00;4.00;;;;;;;;4990839;28;28505;-69
2023/06/21 00:34:12;;;;;;;;;3.67;3.00;;;;;;;;4989913;28;28542;-69
2023/06/21 00:36:41;;;;;;;;;4.00;4.00;;;;;;;;4990458;28;28587;-69
2023/06/21 00:39:07;;;;;;;;;3.33;3.33;;;;;;;;4989996;28;28415;-69
2023/06/21 00:41:32;;;;;;;;;3.00;2.00;;;;;;;;4989322;28;28388;-69
2023/06/21 00:43:58;;;;;;;;;4.00;3.00;;;;;;;;4989420;28;28404;-69
2023/06/21 00:46:23;;;;;;;;;3.00;3.00;;;;;;;;4990352;28;28369;-69
2023/06/21 00:48:49;;;;;;;;;5.33;3.00;;;;;;;;4990234;28;28417;-69
2023/06/21 00:51:14;;;;;;;;;5.67;4.00;;;;;;;;4990523;28;28313;-69
2023/06/21 00:53:40;;;;;;;;;2.67;2.00;;;;;;;;4990477;28;28282;-69
2023/06/21 00:56:05;;;;;;;;;4.00;4.00;;;;;;;;4989068;28;29987;-69
2023/06/21 00:58:32;;;;;;;;;4.00;2.00;;;;;;;;4990613;28;28586;-69
2023/06/21 01:00:57;;;;;;;;;2.67;2.33;;;;;;;;4994056;28;28419;-69
2023/06/21 01:03:23;;;;;;;;;2.67;2.67;;;;;;;;4993569;28;28435;-69
2023/06/21 01:06:15;;;;;;;;;4.33;3.00;;;;;;;;4993966;28;28555;-70
2023/06/21 01:08:56;;;;;;;;;3.00;3.00;;;;;;;;4993300;28;27957;-70
2023/06/21 01:11:26;;;;;;;;;5.33;3.00;;;;;;;;4993569;28;28400;-70
2023/06/21 01:14:27;;;;;;;;;3.67;3.67;;;;;;;;4993450;28;28399;-70
2023/06/21 01:16:54;;;;;;;;;6.67;3.33;;;;;;;;4990878;28;29153;-69
2023/06/21 01:19:31;;;;;;;;;2.00;2.00;;;;;;;;4990903;28;28005;-69
2023/06/21 01:21:57;;;;;;;;;2.00;2.00;;;;;;;;4990934;28;28416;-69
2023/06/21 01:24:29;;;;;;;;;3.00;3.00;;;;;;;;4991057;28;28547;-70
2023/06/21 01:27:01;;;;;;;;;4.00;3.00;;;;;;;;4990819;28;28436;-70
2023/06/21 01:29:33;;;;;;;;;3.00;2.33;;;;;;;;4991029;28;28421;-69
2023/06/21 01:31:59;;;;;;;;;2.00;2.00;;;;;;;;4990514;28;28479;-69
2023/06/21 01:34:24;;;;;;;;;3.00;3.00;;;;;;;;4991016;28;28561;-69
2023/06/21 01:36:50;;;;;;;;;3.67;3.67;;;;;;;;4990705;28;28741;-69
2023/06/21 01:39:15;;;;;;;;;3.00;3.00;;;;;;;;4990697;28;28459;-69
2023/06/21 01:41:40;;;;;;;;;2.00;2.00;;;;;;;;4990564;28;28598;-70
2023/06/21 01:44:09;;;;;;;;;2.33;2.33;;;;;;;;4990320;28;28508;-69
2023/06/21 01:46:34;;;;;;;;;3.33;3.33;;;;;;;;4990138;28;28476;-69
2023/06/21 01:49:01;;;;;;;;;2.00;2.00;;;;;;;;4997929;28;27964;-70
2023/06/21 01:51:26;;;;;;;;;3.00;3.00;;;;;;;;4991514;28;28392;-70
2023/06/21 01:53:52;;;;;;;;;3.00;2.00;;;;;;;;4990097;28;28640;-70
2023/06/21 01:56:18;;;;;;;;;2.33;2.33;;;;;;;;4991689;28;28436;-69
2023/06/21 01:58:45;;;;;;;;;3.67;3.67;;;;;;;;4992669;28;28519;-70
2023/06/21 02:01:11;;;;;;;;;2.33;2.33;;;;;;;;4993004;28;28475;-70
2023/06/21 02:03:39;;;;;;;;;2.67;2.00;;;;;;;;4993103;28;28533;-70
2023/06/21 02:06:06;;;;;;;;;2.67;2.67;;;;;;;;4992754;28;28369;-70
2023/06/21 02:08:32;;;;;;;;;2.00;2.00;;;;;;;;4992802;28;28496;-69
2023/06/21 02:10:58;;;;;;;;;1.33;1.00;;;;;;;;4992364;28;28521;-70
2023/06/21 02:13:26;;;;;;;;;2.67;2.67;;;;;;;;4992761;28;28401;-70
2023/06/21 02:15:52;;;;;;;;;1.33;1.00;;;;;;;;4992774;28;29110;-70
2023/06/21 02:18:20;;;;;;;;;5.00;3.33;;;;;;;;4992542;28;28510;-70
2023/06/21 02:20:47;;;;;;;;;2.33;2.33;;;;;;;;4992812;28;28434;-69
2023/06/21 02:23:12;;;;;;;;;2.00;1.00;;;;;;;;4992826;28;28428;-70
2023/06/21 02:25:37;;;;;;;;;2.00;2.00;;;;;;;;4991331;28;30100;-70
2023/06/21 02:28:03;;;;;;;;;2.00;1.67;;;;;;;;4992894;28;28559;-70
2023/06/21 02:30:29;;;;;;;;;2.00;2.00;;;;;;;;4992368;28;28532;-69
2023/06/21 02:32:54;;;;;;;;;4.00;3.00;;;;;;;;4991027;28;28565;-69
2023/06/21 02:35:19;;;;;;;;;2.00;1.67;;;;;;;;4992111;28;28440;-70
2023/06/21 02:37:47;;;;;;;;;3.00;3.00;;;;;;;;4992194;28;29555;-69
2023/06/21 02:40:13;;;;;;;;;3.00;2.00;;;;;;;;4992494;28;28449;-70
2023/06/21 02:42:39;;;;;;;;;3.00;3.00;;;;;;;;4991882;28;28401;-70
2023/06/21 02:45:04;;;;;;;;;3.33;1.33;;;;;;;;4991716;28;28444;-69
2023/06/21 02:47:29;;;;;;;;;2.33;2.33;;;;;;;;4990719;28;28797;-70
2023/06/21 02:49:55;;;;;;;;;2.00;2.00;;;;;;;;4971455;28;28376;-69
2023/06/21 02:52:20;;;;;;;;;2.00;2.00;;;;;;;;4972257;28;28670;-70
2023/06/21 02:54:45;;;;;;;;;2.67;2.67;;;;;;;;4985857;28;28593;-70
2023/06/21 02:57:10;;;;;;;;;2.67;2.00;;;;;;;;4992042;28;28472;-70
2023/06/21 02:59:36;;;;;;;;;4.00;3.00;;;;;;;;4991877;28;28464;-70
2023/06/21 03:02:01;;;;;;;;;2.67;2.67;;;;;;;;4992012;28;28385;-70
2023/06/21 03:04:26;;;;;;;;;2.00;2.00;;;;;;;;4992106;28;28471;-70
2023/06/21 03:06:51;;;;;;;;;3.00;3.00;;;;;;;;4991952;28;28489;-70
2023/06/21 03:09:17;;;;;;;;;5.00;3.00;;;;;;;;4991778;28;28405;-70
2023/06/21 03:11:42;;;;;;;;;3.67;2.33;;;;;;;;4991918;28;28534;-70
2023/06/21 03:14:07;;;;;;;;;2.67;2.67;;;;;;;;4990239;28;28484;-69
2023/06/21 03:16:33;;;;;;;;;2.33;2.33;;;;;;;;4990318;28;28413;-69
2023/06/21 03:18:58;;;;;;;;;2.33;1.00;;;;;;;;4991931;28;28484;-69
2023/06/21 03:21:23;;;;;;;;;2.33;2.33;;;;;;;;4991590;28;28341;-69
2023/06/21 03:23:49;;;;;;;;;3.00;3.00;;;;;;;;4991564;28;28422;-70
2023/06/21 03:26:14;;;;;;;;;4.75;3.25;;;;;;;;4991209;28;28530;-69
2023/06/21 03:28:41;;;;;;;;;3.33;3.33;;;;;;;;4990307;28;28456;-70
2023/06/21 03:31:06;;;;;;;;;4.00;4.00;;;;;;;;4991537;28;28381;-69
2023/06/21 03:33:31;;;;;;;;;2.00;2.00;;;;;;;;4991361;28;30010;-70
2023/06/21 03:35:56;;;;;;;;;3.00;3.00;;;;;;;;4990207;28;28380;-69
2023/06/21 03:38:21;;;;;;;;;4.33;4.00;;;;;;;;4990294;28;28318;-70
2023/06/21 03:40:47;;;;;;;;;2.00;2.00;;;;;;;;4991491;28;28515;-70
2023/06/21 03:43:13;;;;;;;;;4.00;4.00;;;;;;;;4990744;28;28696;-69
2023/06/21 03:45:38;;;;;;;;;6.00;4.00;;;;;;;;4991264;28;28527;-69
2023/06/21 03:48:05;;;;;;;;;3.67;3.67;;;;;;;;4991275;28;28333;-69
2023/06/21 03:50:31;;;;;;;;;3.00;3.00;;;;;;;;4991264;28;28460;-69
2023/06/21 03:52:56;;;;;;;;;5.00;5.00;;;;;;;;4991203;28;28439;-69
2023/06/21 03:55:22;;;;;;;;;3.00;3.00;;;;;;;;4990768;28;28464;-71
2023/06/21 03:57:47;;;;;;;;;2.67;2.67;;;;;;;;4991228;28;28340;-70
2023/06/21 04:00:13;;;;;;;;;4.67;4.67;;;;;;;;4991226;28;28401;-70
2023/06/21 04:02:39;;;;;;;;;3.67;3.67;;;;;;;;4990842;28;30096;-70
2023/06/21 04:05:04;;;;;;;;;4.00;2.67;;;;;;;;4990053;28;28495;-70
2023/06/21 04:07:30;;;;;;;;;1.00;0.00;;;;;;;;4991300;28;28447;-70
2023/06/21 04:09:55;;;;;;;;;3.00;3.00;;;;;;;;4990987;28;28644;-70
2023/06/21 04:12:20;;;;;;;;;2.33;2.33;;;;;;;;4990884;28;28629;-70
2023/06/21 04:14:45;;;;;;;;;5.33;3.00;;;;;;;;4989491;28;28422;-69
2023/06/21 04:17:11;;;;;;;;;2.00;2.00;;;;;;;;4991131;28;28430;-69
2023/06/21 04:19:36;;;;;;;;;3.00;2.00;;;;;;;;4990978;28;28441;-69
2023/06/21 04:22:01;;;;;;;;;3.00;3.00;;;;;;;;4990940;28;28420;-69
2023/06/21 04:24:26;;;;;;;;;3.00;3.00;;;;;;;;4991003;28;28341;-69
2023/06/21 04:26:53;;;;;;;;;2.00;2.00;;;;;;;;4990717;28;28432;-69
2023/06/21 04:29:19;;;;;;;;;4.00;2.33;;;;;;;;4991059;28;28408;-69
2023/06/21 04:31:45;;;;;;;;;6.25;5.50;;;;;;;;4990715;28;28362;-72
2023/06/21 04:34:10;;;;;;;;;4.67;4.00;;;;;;;;4993103;28;28393;-72
2023/06/21 04:36:35;;;;;;;;;1.67;1.67;;;;;;;;4994147;28;28384;-72
2023/06/21 04:39:02;;;;;;;;;4.00;4.00;;;;;;;;4994441;28;28519;-72
2023/06/21 04:41:27;;;;;;;;;4.33;3.33;;;;;;;;4993909;28;28999;-72
2023/06/21 04:43:52;;;;;;;;;2.33;2.33;;;;;;;;4993597;28;28016;-72
2023/06/21 04:46:18;;;;;;;;;3.00;3.00;;;;;;;;4993024;28;28386;-72
2023/06/21 04:48:44;;;;;;;;;5.67;4.00;;;;;;;;4994249;28;28420;-72
2023/06/21 04:51:09;;;;;;;;;5.33;4.00;;;;;;;;4993098;28;28597;-72
2023/06/21 04:53:34;;;;;;;;;3.00;3.00;;;;;;;;4971929;28;28444;-82
2023/06/21 04:56:00;;;;;;;;;3.33;3.33;;;;;;;;4992652;28;28464;-83
2023/06/21 04:58:25;;;;;;;;;4.67;4.00;;;;;;;;4992627;28;28530;-74
2023/06/21 05:00:51;;;;;;;;;5.00;3.67;;;;;;;;4992613;28;28637;-85
2023/06/21 05:03:16;;;;;;;;;5.00;2.67;;;;;;;;4993576;28;28476;-87
2023/06/21 05:05:41;;;;;;;;;3.33;3.33;;;;;;;;4993208;28;28440;-86
2023/06/21 05:08:06;;;;;;;;;5.33;4.00;;;;;;;;4992364;28;27781;-86
2023/06/21 05:10:32;;;;;;;;;4.00;4.00;;;;;;;;4993080;28;29170;-85
2023/06/21 05:12:57;;;;;;;;;4.67;4.33;;;;;;;;4993230;28;28554;-76
2023/06/21 05:15:22;;;;;;;;;8.00;4.00;;;;;;;;4994255;28;28474;-83
2023/06/21 05:17:48;;;;;;;;;7.00;7.00;;;;;;;;4993010;28;28405;-80
2023/06/21 05:20:13;;;;;;;;;2.67;2.67;;;;;;;;4991974;28;29839;-83
2023/06/21 05:22:38;;;;;;;;;4.33;4.33;;;;;;;;4992817;28;28574;-81
2023/06/21 05:25:04;;;;;;;;;6.67;6.00;;;;;;;;4992813;28;28455;-78
2023/06/21 05:27:32;;;;;;;;;5.00;4.00;;;;;;;;4991956;28;28313;-80
2023/06/21 05:29:57;;;;;;;;;5.00;5.00;;;;;;;;4993083;28;29171;-79
2023/06/21 05:32:25;;;;;;;;;5.33;4.00;;;;;;;;4992741;28;28345;-79
2023/06/21 05:34:50;;;;;;;;;3.33;3.33;;;;;;;;4992875;28;28471;-78
2023/06/21 05:37:15;;;;;;;;;7.50;6.00;;;;;;;;4992751;28;28632;-72
2023/06/21 05:39:42;;;;;;;;;5.25;5.25;;;;;;;;4992413;28;28401;-72
2023/06/21 05:42:07;;;;;;;;;3.33;3.33;;;;;;;;4992797;28;28376;-72
2023/06/21 05:44:33;;;;;;;;;6.00;4.00;;;;;;;;4991876;28;28435;-72
2023/06/21 05:46:58;;;;;;;;;6.00;6.00;;;;;;;;4993168;28;28338;-72
2023/06/21 05:49:23;;;;;;;;;3.00;3.00;;;;;;;;4989144;28;28385;-72
2023/06/21 05:51:48;;;;;;;;;5.00;4.00;;;;;;;;4991131;28;28580;-72
2023/06/21 05:54:13;;;;;;;;;6.00;4.67;;;;;;;;4992105;28;28418;-72
2023/06/21 05:56:38;;;;;;;;;4.00;4.00;;;;;;;;4992164;28;28381;-71
2023/06/21 05:59:04;;;;;;;;;6.00;5.00;;;;;;;;4992696;28;28441;-72
2023/06/21 06:01:29;;;;;;;;;5.67;5.00;;;;;;;;4992918;28;28427;-72
2023/06/21 06:03:54;;;;;;;;;5.67;5.67;;;;;;;;4993140;28;28368;-71
2023/06/21 06:06:20;;;;;;;;;7.00;6.00;;;;;;;;4992930;28;28382;-72
2023/06/21 06:08:45;;;;;;;;;4.67;4.00;;;;;;;;4992641;28;28342;-72
2023/06/21 06:11:10;;;;;;;;;5.00;5.00;;;;;;;;4992792;28;28400;-72
2023/06/21 06:13:35;;;;;;;;;6.67;6.00;;;;;;;;4992924;28;28395;-72
2023/06/21 06:16:02;;;;;;;;;4.33;4.33;;;;;;;;4992779;28;28376;-72
2023/06/21 06:18:27;;;;;;;;;6.67;5.33;;;;;;;;4992663;28;28408;-71
2023/06/21 06:20:52;;;;;;;;;4.67;4.67;;;;;;;;4992790;28;28601;-72
2023/06/21 06:23:17;;;;;;;;;3.00;3.00;;;;;;;;4992888;28;28525;-72
2023/06/21 06:25:44;;;;;;;;;3.33;3.33;;;;;;;;4991481;28;28349;-72
2023/06/21 06:28:09;;;;;;;;;5.00;4.00;;;;;;;;4992594;28;29016;-71
2023/06/21 06:30:34;;;;;;;;;5.00;5.00;;;;;;;;4992769;28;28580;-72
2023/06/21 06:32:59;;;;;;;;;4.00;4.00;;;;;;;;4992822;28;28494;-71
2023/06/21 06:35:25;;;;;;;;;4.00;4.00;;;;;;;;4993028;28;28502;-72
2023/06/21 06:37:50;;;;;;;;;8.75;6.25;;;;;;;;4992492;28;28513;-71
2023/06/21 06:40:15;;;;;;;;;4.00;4.00;;;;;;;;4992571;28;28509;-72
2023/06/21 06:42:40;;;;;;;;;4.67;4.00;;;;;;;;4990914;28;28487;-72
2023/06/21 06:45:06;;;;;;;;;4.00;4.00;;;;;;;;4991003;28;28432;-71
2023/06/21 06:47:31;;;;;;;;;6.00;6.00;;;;;;;;4992192;28;28465;-72
2023/06/21 06:49:57;;;;;;;;;5.25;5.25;;;;;;;;4991949;28;28426;-72
2023/06/21 06:52:22;;;;;;;;;7.00;4.00;;;;;;;;4992007;28;28513;-72
2023/06/21 06:54:47;;;;;;;;;5.00;4.25;;;;;;;;4991873;28;28444;-72
2023/06/21 06:57:13;;;;;;;;;7.67;6.00;;;;;;;;4991469;28;29253;-72
2023/06/21 06:59:38;;;;;;;;;5.00;5.00;;;;;;;;4992045;28;28444;-72
2023/06/21 07:02:03;;;;;;;;;6.00;6.00;;;;;;;;4992226;28;28543;-71
2023/06/21 07:04:28;;;;;;;;;5.00;4.33;;;;;;;;4992117;28;28448;-71
2023/06/21 07:06:54;;;;;;;;;4.25;3.00;;;;;;;;4992055;28;28436;-72
2023/06/21 07:09:19;;;;;;;;;4.00;3.00;;;;;;;;4991840;28;28527;-72
2023/06/21 07:11:44;;;;;;;;;4.33;2.33;;;;;;;;4991902;28;28374;-72
2023/06/21 07:14:09;;;;;;;;;2.67;2.67;;;;;;;;4991702;28;28531;-71
2023/06/21 07:16:35;;;;;;;;;3.00;3.00;;;;;;;;4991777;28;28458;-72
2023/06/21 07:19:03;;;;;;;;;2.00;2.00;;;;;;;;4991774;28;28436;-72
2023/06/21 07:21:28;;;;;;;;;3.00;2.67;;;;;;;;4991475;28;28424;-72
2023/06/21 07:23:53;;;;;;;;;3.00;3.00;;;;;;;;4991706;28;28561;-72
2023/06/21 07:26:19;;;;;;;;;3.00;3.00;;;;;;;;4991743;28;29407;-72
2023/06/21 07:28:44;;;;;;;;;3.33;1.67;;;;;;;;4991536;28;28449;-72
2023/06/21 07:31:09;;;;;;;;;1.25;1.25;;;;;;;;4991766;28;28476;-72
2023/06/21 07:33:35;;;;;;;;;3.00;1.33;;;;;;;;4991491;28;28472;-72
2023/06/21 07:36:00;;;;;;;;;3.00;1.67;;;;;;;;4991079;28;29635;-72
2023/06/21 07:38:25;;;;;;;;;2.33;2.33;;;;;;;;4977852;28;29121;-72
2023/06/21 07:40:50;;;;;;;;;2.00;2.00;;;;;;;;4986663;28;28491;-72
2023/06/21 07:43:15;;;;;;;;;3.25;3.25;;;;;;;;4990727;28;28483;-72
2023/06/21 07:45:41;;;;;;;;;3.00;2.00;;;;;;;;4990859;28;28626;-72
2023/06/21 07:48:07;;;;;;;;;1.25;1.25;;;;;;;;4974455;28;28401;-73
2023/06/21 07:50:32;;;;;;;;;2.00;2.00;;;;;;;;4990632;28;28409;-72
2023/06/21 07:52:57;;;;;;;;;1.75;1.75;;;;;;;;4990656;28;28401;-72
2023/06/21 07:55:23;;;;;;;;;4.00;3.00;;;;;;;;4990726;28;28386;-72
2023/06/21 07:57:48;;;;;;;;;4.00;2.00;;;;;;;;4976604;28;28423;-72
2023/06/21 08:00:13;;;;;;;;;1.00;1.00;;;;;;;;4987347;28;28375;-72
2023/06/21 08:02:39;;;;;;;;;2.25;2.25;;;;;;;;4975899;28;28389;-72
2023/06/21 08:05:05;;;;;;;;;2.00;1.25;;;;;;;;4981296;28;30187;-72
2023/06/21 08:07:30;;;;;;;;;3.00;2.00;;;;;;;;4982784;28;28400;-72
2023/06/21 08:09:55;;;;;;;;;1.25;1.25;;;;;;;;4992270;28;28394;-72
2023/06/21 08:12:21;;;;;;;;;3.00;2.25;;;;;;;;4988895;28;28397;-72
2023/06/21 08:14:46;;;;;;;;;3.50;3.50;;;;;;;;4975614;28;28566;-72
2023/06/21 08:17:11;;;;;;;;;1.25;1.25;;;;;;;;4990986;28;28471;-72
2023/06/21 08:19:36;;;;;;;;;1.75;1.75;;;;;;;;4989954;28;28450;-72
2023/06/21 08:22:01;;;;;;;;;2.67;2.67;;;;;;;;4979160;28;28455;-72
2023/06/21 08:24:27;;;;;;;;;4.00;3.75;;;;;;;;4984699;28;28473;-72
2023/06/21 08:26:52;;;;;;;;;3.75;3.00;;;;;;;;4993839;28;28505;-73
2023/06/21 08:29:17;;;;;;;;;3.00;3.00;;;;;;;;4977644;28;28460;-72
2023/06/21 08:31:42;;;;;;;;;1.50;1.50;;;;;;;;4989495;28;28596;-72
2023/06/21 08:34:08;;;;;;;;;2.00;2.00;;;;;;;;4981357;28;29290;-72
2023/06/21 08:36:33;;;;;;;;;2.25;2.00;;;;;;;;4982148;28;28346;-72
2023/06/21 08:38:58;;;;;;;;;2.25;2.00;;;;;;;;4989042;28;28484;-72
2023/06/21 08:41:24;;;;;;;;;2.00;2.00;;;;;;;;4977288;28;28484;-72
2023/06/21 08:43:49;;;;;;;;;4.00;4.00;;;;;;;;4993337;28;29463;-72
2023/06/21 08:46:15;;;;;;;;;3.50;3.00;;;;;;;;4993593;28;28480;-72
2023/06/21 08:48:41;;;;;;;;;4.50;3.50;;;;;;;;4980913;28;28476;-72
2023/06/21 08:51:06;;;;;;;;;4.75;3.50;;;;;;;;4989972;28;28555;-72
2023/06/21 08:53:35;;;;;;;;;2.00;2.00;;;;;;;;4977408;28;29146;-72
2023/06/21 08:56:03;;;;;;;;;3.00;3.00;;;;;;;;4986373;28;28445;-72
2023/06/21 08:58:31;;;;;;;;;5.00;2.75;;;;;;;;4984618;28;28420;-72
2023/06/21 09:00:58;;;;;;;;;1.50;1.50;;;;;;;;4978877;28;28369;-72
2023/06/21 09:03:26;;;;;;;;;4.75;4.75;;;;;;;;4991202;28;28492;-72
2023/06/21 09:05:54;;;;;;;;;4.25;4.25;;;;;;;;4987552;28;28627;-72
2023/06/21 09:08:20;;;;;;;;;3.75;2.50;;;;;;;;4983152;28;28543;-72
2023/06/21 09:10:46;;;;;;;;;5.75;4.75;;;;;;;;4980050;28;28557;-72
2023/06/21 09:13:12;;;;;;;;;2.75;2.75;;;;;;;;4989488;28;29253;-72
2023/06/21 09:15:37;;;;;;;;;2.00;2.00;;;;;;;;4975884;28;28740;-72
2023/06/21 09:18:03;;;;;;;;;3.25;2.25;;;;;;;;4985636;28;28401;-72
2023/06/21 09:20:29;;;;;;;;;2.75;2.75;;;;;;;;4983950;28;28465;-72
2023/06/21 09:22:57;;;;;;;;;5.75;3.00;;;;;;;;4978781;28;29318;-72
2023/06/21 09:25:23;;;;;;;;;3.25;3.25;;;;;;;;4989287;28;28508;-72
2023/06/21 09:27:48;;;;;;;;;5.50;4.00;;;;;;;;4977437;28;28433;-72
2023/06/21 09:30:13;;;;;;;;;2.00;2.00;;;;;;;;4992447;28;37186;-73
2023/06/21 09:32:39;;;;;;;;;4.50;1.75;;;;;;;;4979157;28;29829;-73
2023/06/21 09:35:04;;;;;;;;;4.00;4.00;;;;;;;;4976373;28;45536;-72
2023/06/21 09:37:33;;;;;;;;;2.25;2.25;;;;;;;;4961112;28;45589;-74
2023/06/21 09:39:58;;;;;;;;;2.50;2.50;;;;;;;;4970610;28;45463;-73
2023/06/21 09:42:24;;;;;;;;;3.00;3.00;;;;;;;;4975222;28;45345;-74
2023/06/21 09:44:49;;;;;;;;;3.00;3.00;;;;;;;;4976797;28;45262;-73
2023/06/21 09:47:14;;;;;;;;;2.25;2.00;;;;;;;;4975995;28;45379;-73
2023/06/21 09:49:45;;;;;;;;;2.50;2.50;;;;;;;;4960639;28;45342;-72
2023/06/21 09:52:10;;;;;;;;;4.25;2.00;;;;;;;;4968644;28;47359;-74
2023/06/21 09:54:41;;;;;;;;;3.75;3.00;;;;;;;;4969303;28;45734;-73
2023/06/21 09:57:07;;;;;;;;;1.00;1.00;;;;;;;;4959976;28;45437;-74
2023/06/21 09:59:35;;;;;;;;;3.25;3.25;;;;;;;;4971819;28;45523;-71
2023/06/21 10:02:01;;;;;;;;;3.00;2.00;;;;;;;;4964049;28;45372;-72
2023/06/21 10:04:27;;;;;;;;;3.75;2.00;;;;;;;;4966042;28;45403;-72
2023/06/21 10:06:54;;;;;;;;;1.50;1.50;;;;;;;;4971385;28;45413;-72
2023/06/21 10:09:19;;;;;;;;;1.50;1.50;;;;;;;;4974440;28;45555;-73
2023/06/21 10:11:45;;;;;;;;;3.50;3.25;;;;;;;;4960804;28;45861;-71
2023/06/21 10:14:23;;;;;;;;;2.00;2.00;;;;;;;;4968085;28;45317;-73
2023/06/21 10:16:55;;;;;;;;;1.50;1.50;;;;;;;;4970885;28;45386;-73
2023/06/21 10:19:22;;;;;;;;;2.25;2.25;;;;;;;;4960440;28;45309;-73
2023/06/21 10:21:50;;;;;;;;;4.00;3.00;;;;;;;;4971383;28;46699;-73
2023/06/21 10:24:16;;;;;;;;;2.00;1.75;;;;;;;;4965962;28;45453;-72
2023/06/21 10:26:42;;;;;;;;;1.75;1.75;;;;;;;;4962794;28;45421;-73
2023/06/21 10:29:09;;;;;;;;;2.75;2.75;;;;;;;;4960485;28;45705;-73
2023/06/21 10:31:36;;;;;;;;;2.25;2.25;;;;;;;;4959535;28;45546;-73
2023/06/21 10:34:02;;;;;;;;;2.75;2.75;;;;;;;;4976362;28;45511;-73
2023/06/21 10:36:32;;;;;;;;;1.50;1.00;;;;;;;;4965889;28;45384;-73
2023/06/21 10:39:02;;;;;;;;;2.25;2.25;;;;;;;;4971688;28;45380;-72
2023/06/21 10:41:27;;;;;;;;;3.25;2.00;;;;;;;;4960205;28;45432;-72
2023/06/21 10:43:52;;;;;;;;;2.50;2.50;;;;;;;;4976157;28;45454;-73
2023/06/21 10:46:18;;;;;;;;;3.00;2.00;;;;;;;;4975569;28;45845;-73
2023/06/21 10:48:44;;;;;;;;;2.75;2.75;;;;;;;;4976349;28;45448;-73
2023/06/21 10:51:10;;;;;;;;;3.00;3.00;;;;;;;;4962500;28;46463;-73
2023/06/21 10:53:35;;;;;;;;;2.00;2.00;;;;;;;;4975633;28;45529;-73
2023/06/21 10:56:01;;;;;;;;;2.00;2.00;;;;;;;;4969129;28;45357;-73
2023/06/21 10:58:28;;;;;;;;;1.25;1.25;;;;;;;;4966945;28;45527;-82
2023/06/21 11:00:54;;;;;;;;;2.25;2.25;;;;;;;;4961829;28;47149;-79
2023/06/21 11:03:25;;;;;;;;;3.50;1.75;;;;;;;;4973073;28;45557;-76
2023/06/21 11:05:55;;;;;;;;;2.25;2.25;;;;;;;;4962346;28;45574;-75
2023/06/21 11:08:30;;;;;;;;;3.00;2.00;;;;;;;;4966151;28;45587;-73
2023/06/21 11:10:55;;;;;;;;;3.00;2.00;;;;;;;;4969981;28;45646;-73
2023/06/21 11:13:33;;;;;;;;;4.00;2.50;;;;;;;;4959921;28;45446;-81
2023/06/21 11:16:08;;;;;;;;;2.00;1.00;;;;;;;;4969306;28;45399;-75
2023/06/21 11:18:33;;;;;;;;;1.75;1.50;;;;;;;;4967369;28;45505;-73
2023/06/21 11:21:03;;;;;;;;;1.50;1.50;;;;;;;;4968955;28;45468;-73
2023/06/21 11:23:29;;;;;;;;;2.25;2.25;;;;;;;;4984559;28;45272;-73
2023/06/21 11:25:58;;;;;;;;;2.75;2.75;;;;;;;;4985198;28;28392;-72
2023/06/21 11:28:23;;;;;;;;;1.25;1.25;;;;;;;;4981169;28;28373;-73
2023/06/21 11:31:07;;;;;;;;;2.25;2.25;;;;;;;;4983421;28;30010;-73
2023/06/21 11:33:52;;;;;;;;;2.00;2.00;;;;;;;;4977052;28;45456;-73
2023/06/21 11:36:21;;;;;;;;;2.00;2.00;;;;;;;;4958281;28;45440;-72
2023/06/21 11:38:50;;;;;;;;;2.50;1.50;;;;;;;;4962706;28;45483;-73
2023/06/21 11:41:40;;;;;;;;;2.00;2.00;;;;;;;;4972426;28;47005;-73
2023/06/21 11:44:05;;;;;;;;;1.75;1.75;;;;;;;;4962372;28;45507;-72
2023/06/21 11:46:31;;;;;;;;;1.50;1.50;;;;;;;;4975178;28;45361;-71
2023/06/21 11:49:00;;;;;;;;;3.00;3.00;;;;;;;;4968053;28;45595;-75
2023/06/21 11:51:27;;;;;;;;;2.50;2.50;;;;;;;;4974275;28;46598;-72
2023/06/21 11:53:53;;;;;;;;;2.00;1.00;;;;;;;;4975007;28;45360;-71
2023/06/21 11:56:19;;;;;;;;;2.00;2.00;;;;;;;;4969903;28;45368;-73
2023/06/21 11:58:48;;;;;;;;;2.00;2.00;;;;;;;;4974247;28;45501;-73
2023/06/21 12:01:14;;;;;;;;;2.50;2.50;;;;;;;;4959219;28;45357;-73
2023/06/21 12:03:39;;;;;;;;;2.00;2.00;;;;;;;;4974385;28;45551;-74
2023/06/21 12:06:04;;;;;;;;;3.00;3.00;;;;;;;;4966319;28;45438;-73
2023/06/21 12:08:31;;;;;;;;;2.75;2.75;;;;;;;;4966888;28;45499;-73
2023/06/21 12:10:59;;;;;;;;;2.00;2.00;;;;;;;;4975136;28;45289;-76
2023/06/21 12:13:24;;;;;;;;;2.75;2.25;;;;;;;;4958944;28;45318;-72
2023/06/21 12:16:03;;;;;;;;;2.00;2.00;;;;;;;;4969661;28;45612;-73
2023/06/21 12:18:29;;;;;;;;;2.00;2.00;;;;;;;;4966664;28;45454;-74
2023/06/21 12:20:55;;;;;;;;;2.00;2.00;;;;;;;;4960818;28;45859;-75
2023/06/21 12:23:22;;;;;;;;;4.00;2.00;;;;;;;;4972090;28;45465;-75
2023/06/21 12:25:49;;;;;;;;;2.00;2.00;;;;;;;;4960553;28;45405;-73
2023/06/21 12:28:15;;;;;;;;;3.00;3.00;;;;;;;;4965140;28;45495;-74
2023/06/21 12:30:47;;;;;;;;;2.00;2.00;;;;;;;;4969382;28;45452;-84
2023/06/21 12:33:12;;;;;;;;;1.75;1.75;;;;;;;;4976688;28;45456;-76
2023/06/21 12:35:37;;;;;;;;;3.00;3.00;;;;;;;;4974924;28;45437;-73
2023/06/21 12:38:12;;;;;;;;;2.00;2.00;;;;;;;;4950334;28;45476;-76
2023/06/21 12:40:49;;;;;;;;;3.00;1.50;;;;;;;;4966469;28;45691;-74
2023/06/21 12:43:29;;;;;;;;;2.00;2.00;;;;;;;;4971660;28;45411;-75
2023/06/21 12:45:54;;;;;;;;;2.25;1.75;;;;;;;;4974695;28;45357;-73
2023/06/21 12:48:19;;;;;;;;;2.25;2.25;;;;;;;;4964453;28;45259;-74
2023/06/21 12:50:45;;;;;;;;;3.00;2.00;;;;;;;;4972185;28;45412;-73
2023/06/21 12:53:11;;;;;;;;;2.00;2.00;;;;;;;;4958709;28;45456;-73
2023/06/21 12:55:45;;;;;;;;;2.50;2.50;;;;;;;;4974393;28;45391;-73
2023/06/21 12:58:10;;;;;;;;;2.25;2.25;;;;;;;;4958647;28;45397;-73
2023/06/21 13:00:35;;;;;;;;;2.00;2.00;;;;;;;;4969755;28;45475;-74
2023/06/21 13:03:00;;;;;;;;;2.50;2.50;;;;;;;;4962765;28;45437;-73
2023/06/21 13:05:25;;;;;;;;;3.00;3.00;;;;;;;;4972981;28;45358;-74
2023/06/21 13:07:50;;;;;;;;;2.25;2.25;;;;;;;;4963392;28;45406;-73
2023/06/21 13:10:16;;;;;;;;;4.25;3.00;;;;;;;;4966769;28;46128;-74
2023/06/21 13:12:41;;;;;;;;;4.00;2.75;;;;;;;;4969879;28;45440;-73
2023/06/21 13:15:06;;;;;;;;;3.00;3.00;;;;;;;;4960386;28;45394;-73
2023/06/21 13:17:32;;;;;;;;;2.00;2.00;;;;;;;;4974105;28;45489;-74
2023/06/21 13:19:57;;;;;;;;;2.00;2.00;;;;;;;;4964397;28;47121;-73
2023/06/21 13:22:22;;;;;;;;;3.00;3.00;;;;;;;;4966058;28;45469;-74
2023/06/21 13:24:53;;;;;;;;;2.00;1.25;;;;;;;;4973712;28;45446;-73
2023/06/21 13:27:19;;;;;;;;;2.00;2.00;;;;;;;;4991458;28;28332;-73
2023/06/21 13:29:44;;;;;;;;;2.50;2.50;;;;;;;;4973923;28;44623;-73
2023/06/21 13:32:09;;;;;;;;;3.00;3.00;;;;;;;;4984469;28;39135;-72
2023/06/21 13:34:34;;;;;;;;;3.75;2.25;;;;;;;;4984776;28;28479;-73
2023/06/21 13:37:00;;;;;;;;;2.25;2.25;;;;;;;;4977940;28;28401;-73
2023/06/21 13:39:25;;;;;;;;;2.50;2.50;;;;;;;;4989365;28;29125;-73
2023/06/21 13:41:50;;;;;;;;;3.00;3.00;;;;;;;;4978785;28;28478;-73
2023/06/21 13:44:15;;;;;;;;;4.25;3.00;;;;;;;;4992778;28;28414;-74
2023/06/21 13:46:41;;;;;;;;;2.00;2.00;;;;;;;;4992840;28;28444;-74
2023/06/21 13:49:06;;;;;;;;;3.50;3.50;;;;;;;;4975521;28;31166;-73
2023/06/21 13:51:32;;;;;;;;;1.25;1.25;;;;;;;;4987724;28;28428;-74
2023/06/21 13:53:57;;;;;;;;;2.00;2.00;;;;;;;;4979056;28;28505;-72
2023/06/21 13:56:22;;;;;;;;;4.00;2.75;;;;;;;;4991791;28;28564;-72
2023/06/21 13:58:49;;;;;;;;;4.50;2.75;;;;;;;;4993008;28;28618;-72
2023/06/21 14:01:14;;;;;;;;;4.50;3.00;;;;;;;;4980755;28;28424;-73
2023/06/21 14:03:39;;;;;;;;;3.00;3.00;;;;;;;;4972008;28;28484;-73
2023/06/21 14:06:04;;;;;;;;;2.50;2.50;;;;;;;;4970996;28;28388;-72
2023/06/21 14:08:30;;;;;;;;;3.25;3.25;;;;;;;;4972928;28;29072;-72
2023/06/21 14:10:55;;;;;;;;;3.50;3.50;;;;;;;;4984340;28;28561;-72
2023/06/21 14:13:20;;;;;;;;;3.25;3.25;;;;;;;;4992644;28;28535;-72
2023/06/21 14:15:45;;;;;;;;;4.75;3.50;;;;;;;;4992497;28;27920;-72
2023/06/21 14:18:11;;;;;;;;;4.00;2.75;;;;;;;;4991418;28;28481;-72
2023/06/21 14:20:36;;;;;;;;;3.00;3.00;;;;;;;;4992138;28;28520;-71
2023/06/21 14:23:01;;;;;;;;;2.75;2.25;;;;;;;;4991098;28;28485;-72
2023/06/21 14:25:26;;;;;;;;;5.00;4.00;;;;;;;;4991274;28;28588;-72
2023/06/21 14:27:51;;;;;;;;;5.00;4.00;;;;;;;;4992324;28;29308;-71
2023/06/21 14:30:18;;;;;;;;;3.00;3.00;;;;;;;;4992300;28;28441;-72
2023/06/21 14:32:43;;;;;;;;;2.00;2.00;;;;;;;;4992522;28;28472;-71
2023/06/21 14:35:08;;;;;;;;;3.00;1.50;;;;;;;;4991640;28;28376;-71
2023/06/21 14:37:33;;;;;;;;;3.25;3.25;;;;;;;;4992131;28;28587;-71